createdAt,value
2018-05-04T00:00:46.666Z,16.00
2018-05-04T00:01:50.761Z,13.50
2018-05-04T00:02:54.831Z,11.50
2018-05-04T00:03:58.882Z,6.50
2018-05-04T00:05:03.024Z,11.50
2018-05-04T00:06:07.091Z,7.50
2018-05-04T00:07:11.143Z,6.00
2018-05-04T00:08:15.237Z,10.00
2018-05-04T00:09:19.296Z,9.50
2018-05-04T00:10:23.445Z,9.50
2018-05-04T00:11:27.601Z,12.00
2018-05-04T00:12:31.665Z,6.50
2018-05-04T00:13:35.732Z,10.00
2018-05-04T00:14:39.921Z,4.50
2018-05-04T00:15:44.119Z,13.00
2018-05-04T00:16:48.511Z,9.50
2018-05-04T00:17:52.573Z,8.00
2018-05-04T00:18:57.461Z,5.50
2018-05-04T00:20:02.050Z,8.00
2018-05-04T00:21:06.198Z,6.00
2018-05-04T00:22:10.293Z,7.50
2018-05-04T00:23:14.695Z,11.00
2018-05-04T00:24:18.788Z,9.50
2018-05-04T00:25:23.245Z,7.50
2018-05-04T00:26:27.323Z,6.00
2018-05-04T00:27:31.737Z,7.50
2018-05-04T00:28:36.017Z,13.50
2018-05-04T00:29:40.811Z,13.50
2018-05-04T00:30:45.303Z,12.00
2018-05-04T00:31:50.423Z,10.00
2018-05-04T00:32:55.637Z,5.00
2018-05-04T00:33:59.698Z,8.00
2018-05-04T00:35:03.759Z,9.50
2018-05-04T00:36:07.910Z,7.50
2018-05-04T00:37:12.007Z,8.00
2018-05-04T00:38:16.105Z,11.50
2018-05-04T00:39:20.183Z,11.50
2018-05-04T00:40:24.243Z,13.50
2018-05-04T00:41:28.392Z,8.00
2018-05-04T00:42:32.867Z,10.00
2018-05-04T00:43:36.928Z,9.00
2018-05-04T00:44:41.083Z,11.50
2018-05-04T00:45:45.589Z,12.00
2018-05-04T00:46:49.755Z,8.50
2018-05-04T00:47:54.449Z,8.50
2018-05-04T00:48:59.428Z,7.00
2018-05-04T00:50:03.515Z,7.00
2018-05-04T00:51:07.571Z,6.50
2018-05-04T00:52:12.413Z,8.00
2018-05-04T00:53:16.533Z,8.00
2018-05-04T00:54:24.356Z,11.00
2018-05-04T00:55:29.423Z,7.00
2018-05-04T00:56:33.481Z,8.00
2018-05-04T00:57:37.631Z,8.00
2018-05-04T00:58:41.751Z,10.50
2018-05-04T00:59:45.809Z,7.00
2018-05-04T01:00:50.243Z,13.00
2018-05-04T01:01:54.593Z,10.50
2018-05-04T01:02:58.796Z,8.00
2018-05-04T01:04:02.858Z,8.50
2018-05-04T01:05:07.019Z,6.50
2018-05-04T01:06:11.499Z,6.50
2018-05-04T01:07:15.867Z,4.50
2018-05-04T01:08:19.972Z,5.50
2018-05-04T01:09:24.287Z,11.50
2018-05-04T01:10:28.609Z,12.50
2018-05-04T01:11:33.011Z,16.00
2018-05-04T01:12:37.496Z,9.50
2018-05-04T01:13:41.934Z,4.00
2018-05-04T01:14:46.252Z,6.50
2018-05-04T01:15:51.137Z,9.50
2018-05-04T01:16:56.395Z,10.00
2018-05-04T01:18:00.797Z,9.50
2018-05-04T01:19:05.388Z,10.00
2018-05-04T01:20:09.831Z,8.00
2018-05-04T01:21:13.899Z,9.50
2018-05-04T01:22:17.987Z,8.00
2018-05-04T01:23:22.119Z,7.00
2018-05-04T01:24:26.258Z,10.50
2018-05-04T01:25:30.411Z,13.00
2018-05-04T01:26:34.454Z,8.50
2018-05-04T01:27:38.622Z,6.00
2018-05-04T01:28:42.689Z,11.00
2018-05-04T01:29:46.733Z,9.50
2018-05-04T01:30:51.271Z,11.50
2018-05-04T01:31:55.753Z,12.00
2018-05-04T01:33:00.107Z,10.00
2018-05-04T01:34:05.059Z,8.00
2018-05-04T01:35:09.224Z,8.50
2018-05-04T01:36:13.301Z,8.00
2018-05-04T01:37:17.447Z,7.50
2018-05-04T01:38:21.529Z,7.50
2018-05-04T01:39:25.925Z,7.00
2018-05-04T01:40:29.981Z,8.00
2018-05-04T01:41:34.435Z,10.50
2018-05-04T01:42:39.038Z,12.50
2018-05-04T01:43:43.425Z,10.50
2018-05-04T01:44:47.571Z,8.00
2018-05-04T01:45:52.361Z,16.00
2018-05-04T01:46:57.055Z,12.00
2018-05-04T01:48:02.146Z,7.50
2018-05-04T01:49:06.209Z,10.50
2018-05-04T01:50:10.364Z,7.50
2018-05-04T01:51:14.435Z,9.50
2018-05-04T01:52:18.923Z,8.50
2018-05-04T01:53:23.013Z,10.00
2018-05-04T01:54:27.069Z,8.00
2018-05-04T01:55:31.248Z,12.00
2018-05-04T01:56:35.304Z,12.00
2018-05-04T01:57:39.495Z,7.50
2018-05-04T01:58:43.905Z,8.50
2018-05-04T01:59:48.119Z,9.00
2018-05-04T02:00:52.501Z,10.00
2018-05-04T02:01:57.765Z,12.50
2018-05-04T02:03:03.491Z,8.50
2018-05-04T02:04:07.773Z,15.50
2018-05-04T02:05:12.685Z,8.50
2018-05-04T02:06:17.454Z,12.50
2018-05-04T02:07:21.893Z,14.00
2018-05-04T02:08:26.211Z,10.50
2018-05-04T02:09:30.639Z,11.50
2018-05-04T02:10:34.902Z,9.50
2018-05-04T02:11:39.383Z,9.00
2018-05-04T02:12:43.777Z,13.50
2018-05-04T02:13:48.141Z,10.50
2018-05-04T02:14:52.676Z,7.00
2018-05-04T02:15:58.109Z,5.00
2018-05-04T02:17:02.169Z,4.50
2018-05-04T02:18:06.250Z,6.00
2018-05-04T02:19:10.355Z,4.00
2018-05-04T02:20:14.541Z,8.00
2018-05-04T02:21:18.584Z,8.00
2018-05-04T02:22:22.659Z,10.00
2018-05-04T02:23:27.050Z,5.00
2018-05-04T02:24:31.193Z,8.00
2018-05-04T02:25:35.263Z,10.50
2018-05-04T02:26:39.392Z,7.50
2018-05-04T02:27:43.506Z,12.00
2018-05-04T02:28:47.549Z,8.00
2018-05-04T02:29:51.898Z,8.50
2018-05-04T02:30:55.936Z,8.00
2018-05-04T02:32:00.901Z,7.50
2018-05-04T02:33:04.977Z,8.50
2018-05-04T02:34:09.037Z,10.00
2018-05-04T02:35:13.193Z,10.50
2018-05-04T02:36:17.578Z,6.00
2018-05-04T02:37:21.636Z,7.50
2018-05-04T02:38:25.761Z,6.00
2018-05-04T02:39:29.886Z,7.50
2018-05-04T02:40:33.947Z,6.00
2018-05-04T02:41:38.019Z,7.00
2018-05-04T02:42:42.090Z,9.00
2018-05-04T02:43:46.239Z,9.00
2018-05-04T02:44:50.348Z,10.00
2018-05-04T02:45:55.701Z,14.00
2018-05-04T02:47:00.396Z,7.50
2018-05-04T02:48:04.459Z,6.50
2018-05-04T02:49:08.862Z,8.00
2018-05-04T02:50:13.490Z,17.00
2018-05-04T02:51:17.768Z,8.50
2018-05-04T02:52:22.102Z,9.00
2018-05-04T02:53:26.582Z,6.00
2018-05-04T02:54:30.705Z,7.00
2018-05-04T02:55:35.027Z,9.00
2018-05-04T02:56:39.310Z,9.00
2018-05-04T02:57:43.731Z,8.50
2018-05-04T02:58:48.118Z,5.50
2018-05-04T02:59:52.954Z,14.00
2018-05-04T03:00:57.490Z,11.50
2018-05-04T03:02:02.587Z,8.50
2018-05-04T03:03:07.105Z,11.00
2018-05-04T03:04:11.418Z,12.50
2018-05-04T03:05:16.002Z,12.00
2018-05-04T03:06:20.641Z,8.50
2018-05-04T03:07:24.695Z,8.00
2018-05-04T03:08:28.888Z,6.00
2018-05-04T03:09:32.972Z,6.00
2018-05-04T03:10:37.118Z,6.00
2018-05-04T03:11:41.181Z,6.00
2018-05-04T03:12:45.224Z,8.50
2018-05-04T03:13:49.358Z,8.50
2018-05-04T03:14:53.408Z,9.50
2018-05-04T03:15:58.075Z,14.00
2018-05-04T03:17:03.380Z,14.50
2018-05-04T03:18:08.179Z,7.50
2018-05-04T03:19:12.633Z,9.50
2018-05-04T03:20:16.666Z,8.50
2018-05-04T03:21:20.790Z,12.00
2018-05-04T03:22:24.913Z,7.50
2018-05-04T03:23:29.150Z,7.00
2018-05-04T03:24:33.264Z,7.00
2018-05-04T03:25:37.624Z,6.50
2018-05-04T03:26:41.708Z,8.50
2018-05-04T03:27:45.838Z,5.00
2018-05-04T03:28:49.910Z,8.50
2018-05-04T03:29:53.998Z,9.50
2018-05-04T03:30:58.302Z,12.50
2018-05-04T03:32:02.948Z,6.00
2018-05-04T03:33:07.099Z,7.00
2018-05-04T03:34:11.157Z,9.00
2018-05-04T03:35:15.498Z,10.50
2018-05-04T03:36:20.037Z,6.00
2018-05-04T03:37:24.166Z,7.00
2018-05-04T03:38:28.951Z,9.00
2018-05-04T03:39:33.102Z,6.00
2018-05-04T03:40:37.184Z,7.50
2018-05-04T03:41:41.677Z,10.00
2018-05-04T03:42:46.008Z,11.00
2018-05-04T03:43:50.788Z,12.00
2018-05-04T03:44:54.893Z,10.00
2018-05-04T03:45:59.305Z,10.00
2018-05-04T03:47:03.456Z,10.00
2018-05-04T03:48:08.357Z,10.00
2018-05-04T03:49:13.079Z,6.50
2018-05-04T03:50:18.159Z,10.50
2018-05-04T03:51:22.235Z,9.00
2018-05-04T03:52:26.455Z,10.00
2018-05-04T03:53:30.671Z,10.00
2018-05-04T03:54:34.763Z,10.00
2018-05-04T03:55:39.221Z,12.00
2018-05-04T03:56:43.315Z,12.00
2018-05-04T03:57:58.053Z,12.00
2018-05-04T04:04:23.554Z,31.00
2018-05-04T04:05:27.722Z,10.00
2018-05-04T04:06:31.825Z,11.00
2018-05-04T04:07:35.946Z,8.00
2018-05-04T04:08:40.354Z,12.00
2018-05-04T04:09:44.415Z,11.50
2018-05-04T04:10:48.539Z,10.50
2018-05-04T04:11:52.708Z,12.00
2018-05-04T04:12:56.885Z,10.00
2018-05-04T04:14:00.952Z,8.00
2018-05-04T04:15:07.358Z,12.00
2018-05-04T04:16:11.826Z,11.00
2018-05-04T04:17:15.925Z,10.50
2018-05-04T04:18:19.991Z,12.00
2018-05-04T04:19:24.052Z,10.00
2018-05-04T04:20:28.539Z,13.50
2018-05-04T04:21:32.712Z,12.50
2018-05-04T04:22:36.795Z,8.00
2018-05-04T04:23:40.851Z,8.50
2018-05-04T04:24:44.937Z,14.50
2018-05-04T04:25:49.058Z,8.00
2018-05-04T04:26:53.538Z,9.00
2018-05-04T04:27:57.619Z,11.50
2018-05-04T04:29:02.214Z,10.00
2018-05-04T04:30:07.107Z,9.00
2018-05-04T04:31:11.386Z,14.00
2018-05-04T04:32:15.737Z,15.00
2018-05-04T04:33:20.139Z,14.50
2018-05-04T04:34:24.213Z,16.00
2018-05-04T04:35:28.312Z,9.50
2018-05-04T04:36:32.616Z,9.50
2018-05-04T04:37:36.720Z,8.00
2018-05-04T04:38:40.845Z,9.50
2018-05-04T04:39:44.966Z,11.50
2018-05-04T04:40:49.039Z,15.50
2018-05-04T04:41:53.136Z,14.00
2018-05-04T04:42:57.235Z,15.00
2018-05-04T04:44:01.412Z,10.00
2018-05-04T04:45:06.920Z,13.00
2018-05-04T04:46:12.517Z,20.50
2018-05-04T04:47:16.692Z,16.00
2018-05-04T04:48:20.766Z,14.50
2018-05-04T04:49:24.920Z,17.50
2018-05-04T04:50:29.016Z,17.00
2018-05-04T04:51:33.114Z,16.00
2018-05-04T04:52:37.659Z,18.00
2018-05-04T04:53:41.746Z,15.25
2018-05-04T04:54:45.800Z,13.75
2018-05-04T04:55:49.890Z,14.50
2018-05-04T04:56:53.998Z,15.50
2018-05-04T04:57:58.377Z,11.00
2018-05-04T04:59:02.436Z,15.00
2018-05-04T05:00:08.232Z,10.00
2018-05-04T05:01:12.697Z,16.00
2018-05-04T05:02:16.808Z,9.50
2018-05-04T05:03:20.879Z,8.50
2018-05-04T05:04:24.960Z,10.50
2018-05-04T05:05:29.042Z,7.50
2018-05-04T05:06:33.102Z,12.50
2018-05-04T05:07:37.320Z,9.50
2018-05-04T05:08:41.438Z,11.00
2018-05-04T05:09:45.575Z,13.00
2018-05-04T05:10:49.988Z,16.00
2018-05-04T05:11:54.043Z,15.00
2018-05-04T05:12:58.116Z,20.00
2018-05-04T05:14:02.208Z,17.00
2018-05-04T05:15:06.854Z,12.50
2018-05-04T05:16:11.444Z,16.50
2018-05-04T05:17:15.812Z,18.00
2018-05-04T05:18:19.871Z,14.50
2018-05-04T05:19:23.961Z,16.00
2018-05-04T05:20:28.062Z,19.50
2018-05-04T05:21:32.164Z,19.25
2018-05-04T05:22:36.288Z,16.75
2018-05-04T05:23:40.476Z,17.00
2018-05-04T05:24:44.590Z,15.50
2018-05-04T05:25:48.695Z,18.00
2018-05-04T05:26:52.742Z,14.25
2018-05-04T05:27:57.220Z,20.00
2018-05-04T05:29:01.290Z,18.00
2018-05-04T05:30:06.436Z,19.50
2018-05-04T05:31:10.517Z,17.00
2018-05-04T05:32:14.622Z,15.50
2018-05-04T05:33:19.322Z,17.25
2018-05-04T05:34:23.882Z,13.75
2018-05-04T05:35:28.066Z,17.50
2018-05-04T05:36:32.148Z,14.75
2018-05-04T05:37:36.409Z,16.00
2018-05-04T05:38:40.493Z,20.50
2018-05-04T05:39:44.555Z,16.50
2018-05-04T05:40:48.660Z,23.25
2018-05-04T05:41:52.795Z,22.00
2018-05-04T05:42:56.912Z,23.50
2018-05-04T05:44:01.008Z,24.50
2018-05-04T05:45:07.586Z,20.00
2018-05-04T05:46:12.293Z,25.00
2018-05-04T05:47:16.424Z,16.75
2018-05-04T05:48:21.716Z,22.00
2018-05-04T05:49:25.814Z,23.50
2018-05-04T05:50:29.976Z,23.50
2018-05-04T05:51:34.234Z,28.50
2018-05-04T05:52:38.454Z,18.75
2018-05-04T05:53:42.522Z,19.50
2018-05-04T05:54:46.587Z,17.00
2018-05-04T05:55:50.681Z,14.00
2018-05-04T05:56:54.801Z,10.00
2018-05-04T05:57:58.981Z,12.00
2018-05-04T05:59:03.381Z,11.75
2018-05-04T06:00:07.532Z,11.00
2018-05-04T06:01:12.129Z,17.50
2018-05-04T06:02:16.511Z,18.50
2018-05-04T06:03:20.673Z,16.00
2018-05-04T06:04:25.076Z,9.50
2018-05-04T06:05:29.232Z,12.50
2018-05-04T06:06:33.314Z,15.00
2018-05-04T06:07:37.441Z,13.00
2018-05-04T06:08:41.509Z,14.00
2018-05-04T06:09:45.671Z,14.50
2018-05-04T06:10:50.136Z,17.50
2018-05-04T06:11:54.265Z,17.50
2018-05-04T06:12:58.425Z,16.50
2018-05-04T06:14:02.581Z,17.75
2018-05-04T06:15:06.676Z,17.00
2018-05-04T06:16:11.716Z,18.25
2018-05-04T06:17:15.797Z,16.75
2018-05-04T06:18:19.882Z,21.00
2018-05-04T06:19:23.982Z,17.00
2018-05-04T06:20:28.048Z,23.00
2018-05-04T06:21:32.280Z,17.00
2018-05-04T06:22:36.746Z,18.00
2018-05-04T06:23:40.850Z,15.25
2018-05-04T06:24:44.965Z,18.50
2018-05-04T06:25:49.122Z,24.00
2018-05-04T06:26:53.254Z,15.50
2018-05-04T06:27:57.329Z,13.50
2018-05-04T06:29:01.423Z,17.50
2018-05-04T06:30:07.036Z,20.50
2018-05-04T06:31:12.478Z,21.00
2018-05-04T06:32:17.115Z,26.00
2018-05-04T06:33:21.197Z,13.50
2018-05-04T06:34:25.392Z,15.50
2018-05-04T06:35:29.777Z,17.50
2018-05-04T06:36:33.994Z,13.00
2018-05-04T06:37:38.095Z,13.00
2018-05-04T06:38:42.349Z,13.75
2018-05-04T06:39:46.486Z,17.00
2018-05-04T06:40:50.597Z,11.50
2018-05-04T06:41:54.664Z,16.00
2018-05-04T06:42:58.735Z,17.00
2018-05-04T06:44:02.849Z,10.00
2018-05-04T06:45:07.409Z,15.50
2018-05-04T06:46:12.578Z,14.00
2018-05-04T06:47:16.984Z,11.00
2018-05-04T06:48:21.077Z,17.00
2018-05-04T06:49:25.147Z,9.00
2018-05-04T06:50:29.345Z,12.00
2018-05-04T06:51:33.406Z,17.00
2018-05-04T06:52:37.477Z,13.00
2018-05-04T06:53:42.047Z,14.50
2018-05-04T06:54:46.250Z,15.00
2018-05-04T06:55:50.368Z,15.00
2018-05-04T06:56:54.523Z,14.50
2018-05-04T06:57:58.635Z,11.00
2018-05-04T06:59:02.710Z,13.50
2018-05-04T07:00:07.895Z,15.50
2018-05-04T07:01:12.400Z,22.00
2018-05-04T07:02:16.686Z,18.00
2018-05-04T07:03:20.748Z,12.50
2018-05-04T07:04:24.829Z,14.00
2018-05-04T07:05:29.012Z,14.50
2018-05-04T07:06:33.430Z,15.00
2018-05-04T07:07:37.590Z,17.50
2018-05-04T07:08:41.673Z,15.00
2018-05-04T07:09:45.829Z,12.50
2018-05-04T07:10:50.032Z,13.25
2018-05-04T07:11:54.214Z,14.00
2018-05-04T07:12:58.302Z,11.75
2018-05-04T07:14:02.394Z,16.00
2018-05-04T07:15:06.712Z,13.50
2018-05-04T07:16:11.397Z,21.50
2018-05-04T07:17:16.550Z,16.00
2018-05-04T07:18:21.162Z,10.00
2018-05-04T07:19:25.241Z,12.00
2018-05-04T07:20:29.387Z,13.50
2018-05-04T07:21:33.492Z,14.75
2018-05-04T07:22:37.563Z,19.00
2018-05-04T07:23:41.650Z,19.75
2018-05-04T07:24:46.126Z,23.25
2018-05-04T07:25:50.334Z,26.00
2018-05-04T07:26:54.525Z,18.00
2018-05-04T07:27:58.644Z,18.00
2018-05-04T07:29:02.785Z,22.00
2018-05-04T07:30:07.264Z,21.75
2018-05-04T07:31:11.646Z,13.50
2018-05-04T07:32:15.765Z,15.00
2018-05-04T07:33:19.860Z,18.50
2018-05-04T07:34:24.022Z,18.25
2018-05-04T07:35:28.150Z,17.00
2018-05-04T07:36:32.232Z,16.00
2018-05-04T07:37:36.297Z,14.75
2018-05-04T07:38:40.445Z,12.00
2018-05-04T07:39:44.640Z,16.00
2018-05-04T07:40:48.887Z,9.00
2018-05-04T07:41:53.062Z,13.00
2018-05-04T07:42:57.165Z,15.00
2018-05-04T07:44:01.740Z,12.00
2018-05-04T07:45:06.800Z,17.00
2018-05-04T07:46:11.372Z,23.50
2018-05-04T07:47:15.601Z,17.00
2018-05-04T07:49:35.762Z,22.00
2018-05-04T07:50:40.169Z,13.00
2018-05-04T07:51:44.269Z,15.50
2018-05-04T07:52:48.431Z,15.00
2018-05-04T07:53:55.573Z,15.50
2018-05-04T07:54:59.794Z,16.50
2018-05-04T07:56:03.967Z,12.00
2018-05-04T07:57:08.369Z,17.00
2018-05-04T07:58:12.472Z,13.50
2018-05-04T07:59:16.630Z,12.50
2018-05-04T08:00:21.078Z,13.75
2018-05-04T08:01:25.212Z,11.00
2018-05-04T08:02:30.244Z,13.25
2018-05-04T08:03:34.626Z,16.50
2018-05-04T08:04:38.835Z,9.50
2018-05-04T08:05:42.948Z,8.00
2018-05-04T08:06:47.056Z,9.00
2018-05-04T08:07:51.133Z,15.25
2018-05-04T08:08:55.276Z,14.75
2018-05-04T08:09:59.513Z,12.50
2018-05-04T08:11:03.625Z,9.00
2018-05-04T08:12:07.871Z,11.00
2018-05-04T08:13:11.941Z,12.00
2018-05-04T08:14:16.075Z,13.75
2018-05-04T08:15:20.907Z,12.50
2018-05-04T08:16:25.493Z,17.00
2018-05-04T08:17:30.520Z,11.00
2018-05-04T08:18:34.663Z,14.75
2018-05-04T08:19:38.790Z,13.50
2018-05-04T08:20:42.905Z,7.00
2018-05-04T08:21:47.448Z,8.75
2018-05-04T08:22:51.626Z,12.00
2018-05-04T08:23:55.837Z,8.00
2018-05-04T08:24:59.950Z,10.00
2018-05-04T08:26:04.086Z,11.50
2018-05-04T08:27:08.268Z,8.25
2018-05-04T08:28:12.709Z,12.50
2018-05-04T08:29:16.810Z,11.00
2018-05-04T08:30:21.391Z,18.50
2018-05-04T08:31:25.477Z,13.50
2018-05-04T08:32:29.579Z,9.00
2018-05-04T08:33:33.650Z,11.50
2018-05-04T08:34:37.731Z,11.50
2018-05-04T08:35:41.819Z,13.25
2018-05-04T08:36:46.008Z,11.50
2018-05-04T08:37:50.171Z,12.00
2018-05-04T08:38:54.255Z,11.50
2018-05-04T08:39:58.336Z,10.50
2018-05-04T08:41:02.881Z,11.00
2018-05-04T08:42:07.093Z,8.50
2018-05-04T08:43:11.305Z,10.00
2018-05-04T08:44:15.322Z,6.25
2018-05-04T08:45:19.413Z,11.75
2018-05-04T08:46:24.250Z,9.00
2018-05-04T08:47:29.615Z,6.25
2018-05-04T08:48:33.841Z,9.00
2018-05-04T08:49:37.941Z,9.00
2018-05-04T08:50:42.009Z,8.50
2018-05-04T08:51:46.155Z,9.75
2018-05-04T08:52:50.265Z,7.00
2018-05-04T08:53:54.340Z,10.50
2018-05-04T08:54:58.413Z,9.00
2018-05-04T08:56:02.604Z,12.00
2018-05-04T08:57:06.902Z,16.50
2018-05-04T08:58:11.029Z,8.50
2018-05-04T08:59:15.135Z,12.75
2018-05-04T09:00:19.262Z,18.25
2018-05-04T09:01:23.425Z,14.75
2018-05-04T09:02:27.510Z,10.00
2018-05-04T09:03:31.579Z,13.00
2018-05-04T09:04:35.665Z,12.50
2018-05-04T09:05:40.256Z,9.75
2018-05-04T09:06:44.265Z,9.50
2018-05-04T09:07:48.367Z,12.25
2018-05-04T09:08:52.456Z,12.25
2018-05-04T09:09:56.560Z,10.00
2018-05-04T09:11:00.640Z,12.00
2018-05-04T09:12:05.339Z,9.50
2018-05-04T09:13:09.477Z,16.00
2018-05-04T09:14:13.577Z,12.00
2018-05-04T09:15:17.700Z,15.00
2018-05-04T09:16:21.819Z,17.00
2018-05-04T09:17:25.871Z,15.00
2018-05-04T09:18:30.304Z,13.75
2018-05-04T09:19:34.391Z,11.50
2018-05-04T09:20:38.456Z,16.00
2018-05-04T09:21:42.579Z,14.50
2018-05-04T09:22:46.762Z,15.75
2018-05-04T09:23:50.851Z,12.00
2018-05-04T09:24:54.913Z,11.25
2018-05-04T09:25:59.055Z,15.50
2018-05-04T09:27:03.318Z,11.00
2018-05-04T09:28:07.501Z,11.50
2018-05-04T09:29:11.630Z,11.75
2018-05-04T09:30:16.140Z,15.00
2018-05-04T09:31:20.652Z,14.00
2018-05-04T09:32:25.103Z,12.00
2018-05-04T09:33:29.207Z,13.00
2018-05-04T09:34:33.737Z,13.25
2018-05-04T09:35:38.520Z,12.00
2018-05-04T09:36:43.376Z,12.00
2018-05-04T09:37:47.454Z,12.50
2018-05-04T09:38:51.528Z,12.00
2018-05-04T09:39:55.611Z,11.00
2018-05-04T09:40:59.987Z,11.50
2018-05-04T09:42:04.277Z,12.50
2018-05-04T09:43:08.426Z,15.50
2018-05-04T09:44:12.583Z,9.00
2018-05-04T09:45:16.954Z,10.50
2018-05-04T09:46:21.068Z,14.00
2018-05-04T09:47:25.487Z,12.50
2018-05-04T09:48:30.364Z,13.00
2018-05-04T09:49:34.568Z,19.00
2018-05-04T09:50:38.684Z,11.00
2018-05-04T09:51:42.780Z,12.50
2018-05-04T09:52:46.873Z,13.50
2018-05-04T09:53:51.258Z,12.00
2018-05-04T09:54:55.321Z,12.75
2018-05-04T09:55:59.516Z,12.50
2018-05-04T09:57:03.756Z,12.00
2018-05-04T09:58:08.042Z,12.00
2018-05-04T09:59:12.129Z,11.50
2018-05-04T10:00:16.678Z,18.25
2018-05-04T10:01:20.842Z,10.00
2018-05-04T10:02:24.982Z,9.25
2018-05-04T10:03:30.066Z,11.50
2018-05-04T10:04:34.118Z,12.00
2018-05-04T10:05:38.222Z,9.75
2018-05-04T10:06:42.876Z,14.00
2018-05-04T10:07:46.922Z,12.00
2018-05-04T10:08:51.136Z,10.50
2018-05-04T10:09:55.367Z,11.25
2018-05-04T10:10:59.664Z,9.00
2018-05-04T10:12:03.945Z,10.25
2018-05-04T10:13:08.491Z,9.00
2018-05-04T10:14:12.628Z,8.00
2018-05-04T10:15:16.752Z,12.50
2018-05-04T10:16:20.812Z,9.50
2018-05-04T10:17:24.882Z,13.25
2018-05-04T10:18:29.375Z,16.50
2018-05-04T10:19:33.446Z,12.50
2018-05-04T10:20:37.520Z,12.25
2018-05-04T10:21:41.690Z,12.00
2018-05-04T10:22:45.850Z,11.75
2018-05-04T10:23:49.952Z,9.75
2018-05-04T10:24:54.359Z,14.00
2018-05-04T10:25:58.459Z,12.50
2018-05-04T10:27:02.698Z,13.50
2018-05-04T10:28:07.000Z,11.00
2018-05-04T10:29:11.206Z,19.25
2018-05-04T10:30:17.270Z,12.75
2018-05-04T10:31:21.411Z,12.50
2018-05-04T10:32:25.578Z,14.00
2018-05-04T10:33:29.823Z,9.75
2018-05-04T10:34:33.988Z,9.50
2018-05-04T10:35:38.177Z,7.50
2018-05-04T10:36:42.601Z,7.50
2018-05-04T10:37:46.703Z,12.25
2018-05-04T10:38:50.993Z,10.75
2018-05-04T10:39:55.067Z,8.50
2018-05-04T10:40:59.221Z,10.00
2018-05-04T10:42:03.425Z,10.50
2018-05-04T10:43:08.477Z,10.50
2018-05-04T10:44:12.633Z,10.75
2018-05-04T10:45:17.070Z,16.50
2018-05-04T10:46:21.214Z,11.50
2018-05-04T10:47:25.319Z,11.75
2018-05-04T10:48:29.446Z,12.25
2018-05-04T10:49:34.251Z,12.50
2018-05-04T10:50:38.354Z,11.00
2018-05-04T10:51:43.318Z,10.75
2018-05-04T10:52:47.409Z,8.50
2018-05-04T10:53:51.514Z,12.00
2018-05-04T10:54:55.673Z,11.50
2018-05-04T10:55:59.863Z,11.50
2018-05-04T10:57:04.178Z,14.25
2018-05-04T10:58:08.602Z,13.00
2018-05-04T10:59:12.669Z,7.50
2018-05-04T11:00:17.487Z,11.75
2018-05-04T11:01:21.560Z,12.00
2018-05-04T11:02:25.730Z,9.00
2018-05-04T11:03:29.915Z,13.50
2018-05-04T11:04:34.017Z,12.75
2018-05-04T11:05:38.425Z,12.00
2018-05-04T11:06:43.444Z,10.50
2018-05-04T11:07:47.598Z,10.50
2018-05-04T11:08:51.705Z,11.00
2018-05-04T11:09:55.869Z,15.75
2018-05-04T11:10:59.972Z,17.50
2018-05-04T11:12:04.553Z,14.50
2018-05-04T11:13:09.072Z,12.00
2018-05-04T11:14:13.184Z,15.75
2018-05-04T11:15:17.746Z,15.25
2018-05-04T11:16:21.805Z,16.75
2018-05-04T11:17:25.896Z,13.25
2018-05-04T11:18:30.329Z,15.25
2018-05-04T11:19:34.413Z,17.50
2018-05-04T11:20:38.632Z,21.00
2018-05-04T11:21:43.366Z,15.50
2018-05-04T11:22:47.448Z,17.25
2018-05-04T11:23:51.517Z,17.00
2018-05-04T11:24:55.985Z,14.50
2018-05-04T11:26:00.156Z,16.75
2018-05-04T11:27:04.301Z,14.75
2018-05-04T11:28:08.356Z,15.25
2018-05-04T11:29:12.846Z,9.50
2018-05-04T11:30:17.383Z,25.00
2018-05-04T11:31:21.443Z,11.75
2018-05-04T11:32:25.541Z,12.00
2018-05-04T11:33:29.712Z,14.25
2018-05-04T11:34:33.999Z,14.50
2018-05-04T11:35:39.185Z,14.50
2018-05-04T11:36:43.535Z,19.75
2018-05-04T11:37:48.635Z,19.00
2018-05-04T11:38:52.790Z,12.25
2018-05-04T11:39:56.867Z,16.00
2018-05-04T11:41:01.053Z,14.50
2018-05-04T11:42:05.525Z,16.75
2018-05-04T11:43:09.683Z,14.00
2018-05-04T11:44:14.050Z,14.00
2018-05-04T11:45:18.506Z,13.75
2018-05-04T11:46:22.583Z,17.50
2018-05-04T11:47:26.778Z,18.50
2018-05-04T11:48:31.201Z,12.75
2018-05-04T11:49:35.413Z,23.50
2018-05-04T11:50:39.546Z,12.00
2018-05-04T11:51:43.638Z,15.00
2018-05-04T11:52:47.783Z,13.00
2018-05-04T11:53:51.864Z,10.00
2018-05-04T11:54:56.396Z,15.00
2018-05-04T11:56:00.475Z,12.50
2018-05-04T11:57:04.670Z,16.50
2018-05-04T11:58:08.824Z,13.75
2018-05-04T11:59:14.263Z,16.75
2018-05-04T12:00:18.711Z,25.25
2018-05-04T12:01:22.798Z,17.00
2018-05-04T12:02:27.081Z,18.50
2018-05-04T12:03:31.227Z,17.75
2018-05-04T12:04:35.463Z,16.75
2018-05-04T12:05:40.375Z,17.00
2018-05-04T12:06:44.805Z,16.25
2018-05-04T12:07:49.313Z,9.50
2018-05-04T12:08:53.381Z,12.75
2018-05-04T12:09:57.470Z,20.00
2018-05-04T12:11:01.582Z,19.50
2018-05-04T12:12:05.661Z,13.75
2018-05-04T12:13:10.092Z,16.25
2018-05-04T12:14:14.725Z,13.00
2018-05-04T12:15:19.161Z,19.50
2018-05-04T12:16:23.249Z,12.50
2018-05-04T12:17:27.455Z,12.50
2018-05-04T12:18:31.571Z,14.25
2018-05-04T12:19:35.682Z,15.50
2018-05-04T12:20:39.831Z,17.50
2018-05-04T12:21:44.013Z,18.50
2018-05-04T12:22:48.461Z,13.25
2018-05-04T12:23:52.590Z,11.50
2018-05-04T12:24:56.817Z,16.50
2018-05-04T12:26:01.299Z,14.00
2018-05-04T12:27:05.400Z,13.75
2018-05-04T12:28:09.517Z,15.00
2018-05-04T12:29:13.886Z,14.00
2018-05-04T12:30:18.052Z,10.00
2018-05-04T12:31:22.591Z,12.25
2018-05-04T12:32:26.717Z,15.00
2018-05-04T12:33:30.887Z,15.00
2018-05-04T12:34:34.984Z,10.00
2018-05-04T12:35:39.088Z,14.00
2018-05-04T12:36:43.264Z,12.50
2018-05-04T12:37:47.677Z,10.00
2018-05-04T12:38:51.787Z,11.75
2018-05-04T12:39:55.949Z,16.50
2018-05-04T12:41:00.105Z,9.00
2018-05-04T12:42:04.261Z,15.50
2018-05-04T12:43:08.355Z,17.75
2018-05-04T12:44:12.761Z,14.00
2018-05-04T12:45:16.941Z,17.00
2018-05-04T12:46:21.087Z,12.25
2018-05-04T12:47:25.149Z,13.50
2018-05-04T12:48:29.277Z,12.00
2018-05-04T12:49:33.708Z,9.00
2018-05-04T12:50:37.784Z,12.50
2018-05-04T12:51:41.972Z,14.25
2018-05-04T12:52:47.397Z,17.00
2018-05-04T12:53:51.696Z,15.00
2018-05-04T12:54:56.349Z,19.50
2018-05-04T12:56:00.784Z,16.00
2018-05-04T12:57:04.879Z,12.50
2018-05-04T12:58:09.072Z,14.50
2018-05-04T12:59:13.639Z,12.00
2018-05-04T13:00:22.023Z,18.00
2018-05-04T13:01:26.425Z,18.50
2018-05-04T13:02:31.241Z,25.00
2018-05-04T13:03:35.345Z,15.50
2018-05-04T13:04:39.455Z,14.50
2018-05-04T13:05:43.673Z,16.25
2018-05-04T13:06:47.769Z,15.50
2018-05-04T13:07:53.055Z,16.00
2018-05-04T13:08:57.265Z,13.50
2018-05-04T13:10:01.368Z,16.75
2018-05-04T13:11:05.444Z,14.00
2018-05-04T13:12:10.329Z,16.00
2018-05-04T13:13:14.901Z,12.00
2018-05-04T13:14:19.391Z,18.00
2018-05-04T13:15:23.517Z,18.50
2018-05-04T13:16:27.665Z,19.00
2018-05-04T13:17:31.794Z,21.00
2018-05-04T13:18:35.815Z,21.00
2018-05-04T13:19:40.009Z,15.00
2018-05-04T13:20:44.511Z,16.25
2018-05-04T13:21:48.684Z,12.75
2018-05-04T13:22:53.377Z,16.25
2018-05-04T13:23:57.563Z,13.25
2018-05-04T13:25:01.679Z,12.25
2018-05-04T13:26:05.796Z,13.50
2018-05-04T13:27:09.991Z,12.25
2018-05-04T13:28:14.355Z,12.50
2018-05-04T13:29:18.597Z,15.00
2018-05-04T13:30:23.417Z,23.25
2018-05-04T13:31:27.814Z,17.00
2018-05-04T13:32:32.229Z,19.00
2018-05-04T13:33:36.719Z,13.50
2018-05-04T13:34:40.882Z,15.50
2018-05-04T13:35:45.016Z,17.75
2018-05-04T13:36:49.095Z,12.75
2018-05-04T13:37:53.189Z,14.25
2018-05-04T13:38:57.801Z,14.00
2018-05-04T13:40:03.253Z,11.75
2018-05-04T13:41:07.350Z,15.50
2018-05-04T13:42:11.658Z,13.25
2018-05-04T13:43:15.976Z,18.25
2018-05-04T13:44:20.199Z,21.50
2018-05-04T13:45:24.524Z,13.00
2018-05-04T13:46:29.291Z,20.25
2018-05-04T13:47:33.395Z,13.00
2018-05-04T13:48:37.544Z,13.75
2018-05-04T13:49:41.819Z,16.75
2018-05-04T13:50:45.940Z,14.25
2018-05-04T13:51:50.053Z,14.00
2018-05-04T13:52:54.217Z,13.50
2018-05-04T13:53:59.333Z,14.50
2018-05-04T13:55:03.496Z,11.75
2018-05-04T13:56:07.632Z,19.00
2018-05-04T13:57:11.711Z,17.50
2018-05-04T13:58:15.897Z,18.75
2018-05-04T13:59:20.253Z,15.50
2018-05-04T14:00:24.535Z,15.00
2018-05-04T14:01:29.117Z,19.25
2018-05-04T14:02:33.706Z,17.00